Epic Balta — 9VED8 — position and weather

sailwx.info

Track history (hours):
 
Tides and Currents Weather Stations Pressure Air Temp Water Temp Dewpoint Dewpoint Depression Visibility Wind Speed Wind Dir Waves Ship Positions

Epic Balta

Last reported at 2015-Apr-19 05:30 UTC. Time now 2015-May-07 02:35 UTC.
Position N 35°60' W 005°31'.
Warning: this ship's position is 17 days out of date.

Length 100 m; draft 5.7 m.

Type: Tanker. MMSI: 565525000.

Date/timePositionNaut miles runAvg speedWind from/ knotsBaromVisibWave heightAir tempDewpointWater temp
2015-Apr-19 05:30N 35°60' W 005°31'6 6.7
2015-Apr-19 04:33N 36°03' W 005°24'6 6.0
2015-Apr-19 03:33N 36°09' W 005°22'0 0.0
2015-Apr-19 01:12N 36°09' W 005°22'0 0.0
2015-Apr-19 00:24N 36°09' W 005°22'0 0.1
2015-Apr-18 23:30N 36°09' W 005°22'0 0.0
2015-Apr-18 20:33N 36°08' W 005°22'0 0.0
2015-Apr-18 19:21N 36°08' W 005°22'0 0.0
2015-Apr-18 17:24N 36°08' W 005°22'2 2.2
2015-Apr-18 16:24N 36°06' W 005°22'4 4.5
2015-Apr-18 15:34N 36°04' W 005°19'25013.2
2015-Apr-17 20:33N 36°53' W 000°13'1313.0
2015-Apr-17 19:32N 36°56' E 000°03'1313.1
2015-Apr-17 18:33N 36°60' E 000°18'1913.5
2015-Apr-17 17:08N 37°05' E 000°41'2512.4
2015-Apr-17 15:08N 37°12' E 001°11'11312.8
2015-Apr-17 06:19N 37°43' E 003°28'21412.7
2015-Apr-16 13:29N 37°50' E 007°59'1712.5
2015-Apr-16 12:06N 37°50' E 008°21'913.3
2015-Apr-16 11:24N 37°50' E 008°33'2512.5
2015-Apr-16 09:26N 37°49' E 009°04'1112.3
2015-Apr-16 08:33N 37°47' E 009°17'1312.6
2015-Apr-16 07:32N 37°45' E 009°33'15312.7
2015-Apr-15 19:33N 36°51' E 012°33'1413.2
2015-Apr-15 18:28N 36°43' E 012°48'1213.3
2015-Apr-15 17:33N 36°41' E 013°03'1313.1
2015-Apr-15 16:33N 36°38' E 013°19'1312.6
2015-Apr-15 15:33N 36°36' E 013°34'1312.8
2015-Apr-15 14:33N 36°33' E 013°50'1312.9
2015-Apr-15 13:33N 36°31' E 014°05'1312.8
2015-Apr-15 12:33N 36°28' E 014°21'1312.7
2015-Apr-15 11:32N 36°26' E 014°37'1312.8
2015-Apr-15 10:33N 36°24' E 014°52'44312.0
2015-Apr-13 21:32N 36°56' E 024°03'1412.7
2015-Apr-13 20:25N 37°09' E 024°09'1112.8
2015-Apr-13 19:33N 37°20' E 024°14'  
Track history (hours):
 
Tides and Currents Weather Stations Pressure Air Temp Water Temp Dewpoint Dewpoint Depression Visibility Wind Speed Wind Dir Waves Ship Positions

Epic Balta

Last reported at 2015-Apr-19 05:30 UTC. Time now 2015-May-07 02:35 UTC.
Position N 35°60' W 005°31'.
Warning: this ship's position is 17 days out of date.

Length 100 m; draft 5.7 m.

Type: Tanker. MMSI: 565525000.

Date/timePositionNaut miles runAvg speedWind from/ knotsBaromVisibWave heightAir tempDewpointWater temp
2015-Apr-19 05:30N 35°60' W 005°31'6 6.7
2015-Apr-19 04:33N 36°03' W 005°24'6 6.0
2015-Apr-19 03:33N 36°09' W 005°22'0 0.0
2015-Apr-19 01:12N 36°09' W 005°22'0 0.0
2015-Apr-19 00:24N 36°09' W 005°22'0 0.1
2015-Apr-18 23:30N 36°09' W 005°22'0 0.0
2015-Apr-18 20:33N 36°08' W 005°22'0 0.0
2015-Apr-18 19:21N 36°08' W 005°22'0 0.0
2015-Apr-18 17:24N 36°08' W 005°22'2 2.2
2015-Apr-18 16:24N 36°06' W 005°22'4 4.5
2015-Apr-18 15:34N 36°04' W 005°19'25013.2
2015-Apr-17 20:33N 36°53' W 000°13'1313.0
2015-Apr-17 19:32N 36°56' E 000°03'1313.1
2015-Apr-17 18:33N 36°60' E 000°18'1913.5
2015-Apr-17 17:08N 37°05' E 000°41'2512.4
2015-Apr-17 15:08N 37°12' E 001°11'11312.8
2015-Apr-17 06:19N 37°43' E 003°28'21412.7
2015-Apr-16 13:29N 37°50' E 007°59'1712.5
2015-Apr-16 12:06N 37°50' E 008°21'913.3
2015-Apr-16 11:24N 37°50' E 008°33'2512.5
2015-Apr-16 09:26N 37°49' E 009°04'1112.3
2015-Apr-16 08:33N 37°47' E 009°17'1312.6
2015-Apr-16 07:32N 37°45' E 009°33'15312.7
2015-Apr-15 19:33N 36°51' E 012°33'1413.2
2015-Apr-15 18:28N 36°43' E 012°48'1213.3
2015-Apr-15 17:33N 36°41' E 013°03'1313.1
2015-Apr-15 16:33N 36°38' E 013°19'1312.6
2015-Apr-15 15:33N 36°36' E 013°34'1312.8
2015-Apr-15 14:33N 36°33' E 013°50'1312.9
2015-Apr-15 13:33N 36°31' E 014°05'1312.8
2015-Apr-15 12:33N 36°28' E 014°21'1312.7
2015-Apr-15 11:32N 36°26' E 014°37'1312.8
2015-Apr-15 10:33N 36°24' E 014°52'44312.0
2015-Apr-13 21:32N 36°56' E 024°03'1412.7
2015-Apr-13 20:25N 37°09' E 024°09'1112.8
2015-Apr-13 19:33N 37°20' E 024°14'  

Dump ship's entire track history